createdAt,value
2018-12-13T00:00:17.200Z,97381.36
2018-12-13T00:02:46.617Z,97382.56
2018-12-13T00:05:15.997Z,97376.22
2018-12-13T00:07:45.318Z,97372.16
2018-12-13T00:10:14.621Z,97373.44
2018-12-13T00:12:43.946Z,97369.16
2018-12-13T00:15:13.569Z,97378.16
2018-12-13T00:17:43.359Z,97370.08
2018-12-13T00:20:13.374Z,97359.60
2018-12-13T00:22:42.827Z,97363.02
2018-12-13T00:25:12.225Z,97369.10
2018-12-13T00:27:41.667Z,97364.81
2018-12-13T00:30:11.166Z,97368.00
2018-12-13T00:32:40.514Z,97359.28
2018-12-13T00:35:09.973Z,97362.47
2018-12-13T00:37:39.411Z,97360.61
2018-12-13T00:40:09.289Z,97364.68
2018-12-13T00:42:38.677Z,97353.42
2018-12-13T00:45:08.318Z,97352.64
2018-12-13T00:47:37.847Z,97355.73
2018-12-13T00:50:07.561Z,97359.15
2018-12-13T00:52:36.991Z,97358.56
2018-12-13T00:55:06.527Z,97350.11
2018-12-13T00:57:35.975Z,97357.45
2018-12-13T01:00:06.636Z,97354.98
2018-12-13T01:02:36.398Z,97349.59
2018-12-13T01:05:06.574Z,97356.03
2018-12-13T01:07:36.108Z,97355.70
2018-12-13T01:10:06.083Z,97352.45
2018-12-13T01:12:35.546Z,97351.83
2018-12-13T01:15:05.445Z,97352.00
2018-12-13T01:17:34.768Z,97353.81
2018-12-13T01:20:04.510Z,97344.71
2018-12-13T01:22:34.094Z,97350.59
2018-12-13T01:25:03.575Z,97351.05
2018-12-13T01:27:32.977Z,97349.94
2018-12-13T01:30:02.344Z,97350.92
2018-12-13T01:32:31.709Z,97348.94
2018-12-13T01:35:01.056Z,97351.53
2018-12-13T01:37:30.504Z,97343.31
2018-12-13T01:39:59.942Z,97334.92
2018-12-13T01:42:29.492Z,97343.38
2018-12-13T01:44:58.797Z,97336.34
2018-12-13T01:47:28.222Z,97338.72
2018-12-13T01:49:57.574Z,97335.23
2018-12-13T01:52:27.078Z,97334.14
2018-12-13T01:54:56.423Z,97324.77
2018-12-13T01:57:25.733Z,97324.31
2018-12-13T01:59:55.070Z,97320.91
2018-12-13T02:02:24.436Z,97323.66
2018-12-13T02:04:53.798Z,97325.16
2018-12-13T02:07:23.127Z,97320.31
2018-12-13T02:09:52.557Z,97316.16
2018-12-13T02:12:21.848Z,97310.53
2018-12-13T02:14:51.235Z,97314.49
2018-12-13T02:17:20.567Z,97322.27
2018-12-13T02:19:49.958Z,97311.31
2018-12-13T02:22:19.401Z,97314.78
2018-12-13T02:24:48.741Z,97316.70
2018-12-13T02:27:18.132Z,97312.77
2018-12-13T02:29:47.550Z,97306.11
2018-12-13T02:32:17.034Z,97309.19
2018-12-13T02:34:46.457Z,97313.48
2018-12-13T02:37:16.046Z,97315.08
2018-12-13T02:39:45.397Z,97307.86
2018-12-13T02:42:14.805Z,97305.00
2018-12-13T02:44:44.232Z,97305.00
2018-12-13T02:47:13.637Z,97301.97
2018-12-13T02:49:43.002Z,97295.96
2018-12-13T02:52:12.406Z,97293.59
2018-12-13T02:54:41.881Z,97287.41
2018-12-13T02:57:11.405Z,97291.05
2018-12-13T02:59:40.894Z,97287.48
2018-12-13T03:02:10.343Z,97289.88
2018-12-13T03:04:39.972Z,97278.14
2018-12-13T03:07:13.539Z,97279.52
2018-12-13T03:09:40.953Z,97283.77
2018-12-13T03:12:10.400Z,97271.74
2018-12-13T03:14:39.817Z,97277.06
2018-12-13T03:17:09.225Z,97277.92
2018-12-13T03:19:38.694Z,97276.36
2018-12-13T03:22:08.022Z,97280.54
2018-12-13T03:24:37.456Z,97277.68
2018-12-13T03:27:06.838Z,97274.91
2018-12-13T03:29:36.263Z,97267.34
2018-12-13T03:32:05.586Z,97266.71
2018-12-13T03:34:34.931Z,97256.58
2018-12-13T03:37:04.340Z,97252.22
2018-12-13T03:39:34.378Z,97257.05
2018-12-13T03:42:04.121Z,97261.00
2018-12-13T03:44:33.517Z,97251.65
2018-12-13T03:47:02.893Z,97253.23
2018-12-13T03:49:32.279Z,97247.09
2018-12-13T03:52:01.700Z,97248.11
2018-12-13T03:54:31.035Z,97254.60
2018-12-13T03:57:00.453Z,97250.38
2018-12-13T03:59:30.355Z,97249.30
2018-12-13T04:02:00.352Z,97241.22
2018-12-13T04:04:30.168Z,97243.58
2018-12-13T04:06:59.491Z,97242.41
2018-12-13T04:09:28.897Z,97232.52
2018-12-13T04:11:58.362Z,97242.48
2018-12-13T04:14:27.719Z,97234.72
2018-12-13T04:16:57.123Z,97238.52
2018-12-13T04:19:26.545Z,97238.53
2018-12-13T04:22:00.919Z,97238.69
2018-12-13T04:24:30.949Z,97232.11
2018-12-13T04:27:00.388Z,97225.48
2018-12-13T04:29:29.921Z,97227.91
2018-12-13T04:31:59.361Z,97215.67
2018-12-13T04:34:28.742Z,97225.55
2018-12-13T04:36:58.234Z,97211.55
2018-12-13T04:39:27.653Z,97220.89
2018-12-13T04:41:57.043Z,97211.40
2018-12-13T04:44:26.527Z,97219.28
2018-12-13T04:49:24.507Z,97205.61
2018-12-13T04:51:54.049Z,97206.94
2018-12-13T04:54:23.543Z,97212.11
2018-12-13T04:56:53.052Z,97199.45
2018-12-13T04:59:22.517Z,97209.58
2018-12-13T05:01:51.852Z,97207.28
2018-12-13T05:04:21.206Z,97208.29
2018-12-13T05:06:50.544Z,97194.30
2018-12-13T05:09:19.933Z,97196.34
2018-12-13T05:11:49.348Z,97196.95
2018-12-13T05:14:18.838Z,97196.50
2018-12-13T05:16:48.269Z,97191.34
2018-12-13T05:19:17.648Z,97192.38
2018-12-13T05:21:47.041Z,97197.84
2018-12-13T05:27:19.291Z,97176.80
2018-12-13T05:29:48.718Z,97181.54
2018-12-13T05:32:18.014Z,97188.81
2018-12-13T05:34:47.381Z,97185.79
2018-12-13T05:37:16.762Z,97189.30
2018-12-13T05:39:46.213Z,97188.65
2018-12-13T05:42:15.558Z,97176.62
2018-12-13T05:44:45.146Z,97174.88
2018-12-13T05:47:14.440Z,97172.67
2018-12-13T05:49:43.874Z,97171.95
2018-12-13T05:52:13.302Z,97170.46
2018-12-13T05:54:42.762Z,97171.47
2018-12-13T05:57:12.078Z,97168.00
2018-12-13T05:59:41.518Z,97175.92
2018-12-13T06:02:10.884Z,97172.19
2018-12-13T06:04:40.463Z,97167.28
2018-12-13T06:07:09.790Z,97166.08
2018-12-13T06:09:39.114Z,97167.22
2018-12-13T06:12:08.533Z,97170.53
2018-12-13T06:14:38.330Z,97166.66
2018-12-13T06:17:07.771Z,97167.12
2018-12-13T06:19:37.405Z,97161.50
2018-12-13T06:22:07.739Z,97161.21
2018-12-13T06:24:37.035Z,97160.78
2018-12-13T06:27:06.424Z,97147.18
2018-12-13T06:29:41.706Z,97164.81
2018-12-13T06:32:07.392Z,97152.86
2018-12-13T06:34:36.814Z,97161.50
2018-12-13T06:37:06.215Z,97149.23
2018-12-13T06:39:35.631Z,97158.25
2018-12-13T06:45:11.073Z,97158.35
2018-12-13T06:47:40.452Z,97160.56
2018-12-13T06:50:10.089Z,97161.44
2018-12-13T06:52:39.547Z,97160.56
2018-12-13T06:55:09.025Z,97166.02
2018-12-13T06:57:38.407Z,97161.44
2018-12-13T07:00:09.632Z,97159.69
2018-12-13T07:02:38.926Z,97156.44
2018-12-13T07:05:08.754Z,97156.60
2018-12-13T07:07:38.201Z,97149.39
2018-12-13T07:10:07.624Z,97152.80
2018-12-13T07:12:36.918Z,97155.14
2018-12-13T07:15:07.475Z,97156.63
2018-12-13T07:17:36.902Z,97156.11
2018-12-13T07:20:06.598Z,97156.41
2018-12-13T07:22:36.081Z,97155.23
2018-12-13T07:25:05.827Z,97160.63
2018-12-13T07:27:35.225Z,97157.12
2018-12-13T07:30:06.208Z,97153.16
2018-12-13T07:32:35.689Z,97150.45
2018-12-13T07:35:06.137Z,97165.82
2018-12-13T07:37:36.050Z,97155.07
2018-12-13T07:40:06.839Z,97154.64
2018-12-13T07:42:36.182Z,97156.78
2018-12-13T07:45:06.023Z,97149.19
2018-12-13T07:47:35.442Z,97143.79
2018-12-13T07:50:07.019Z,97152.33
2018-12-13T07:52:36.523Z,97149.53
2018-12-13T07:55:06.410Z,97141.88
2018-12-13T07:57:35.823Z,97140.54
2018-12-13T08:00:08.458Z,97142.03
2018-12-13T08:02:38.444Z,97149.47
2018-12-13T08:05:09.072Z,97137.18
2018-12-13T08:07:38.658Z,97136.63
2018-12-13T08:10:08.655Z,97135.81
2018-12-13T08:12:38.143Z,97144.03
2018-12-13T08:15:08.433Z,97135.14
2018-12-13T08:17:37.949Z,97135.69
2018-12-13T08:20:07.665Z,97135.31
2018-12-13T08:22:37.049Z,97143.02
2018-12-13T08:25:06.729Z,97144.17
2018-12-13T08:27:36.060Z,97136.89
2018-12-13T08:30:06.437Z,97143.87
2018-12-13T08:32:35.839Z,97145.08
2018-12-13T08:35:05.832Z,97140.58
2018-12-13T08:37:35.225Z,97138.64
2018-12-13T08:40:05.193Z,97131.84
2018-12-13T08:42:34.517Z,97139.67
2018-12-13T08:45:04.152Z,97139.22
2018-12-13T08:47:33.597Z,97137.71
2018-12-13T08:50:02.928Z,97138.05
2018-12-13T08:52:32.320Z,97137.02
2018-12-13T08:55:01.698Z,97133.00
2018-12-13T08:57:31.211Z,97131.73
2018-12-13T09:00:00.741Z,97127.72
2018-12-13T09:02:30.289Z,97126.11
2018-12-13T09:04:59.680Z,97126.23
2018-12-13T09:07:29.153Z,97119.41
2018-12-13T09:09:58.632Z,97113.55
2018-12-13T09:12:28.030Z,97121.67
2018-12-13T09:14:57.398Z,97109.11
2018-12-13T09:20:33.550Z,97118.39
2018-12-13T09:23:02.945Z,97115.78
2018-12-13T09:25:32.477Z,97110.59
2018-12-13T09:28:01.985Z,97118.08
2018-12-13T09:30:31.417Z,97117.08
2018-12-13T09:33:00.874Z,97111.41
2018-12-13T09:35:30.344Z,97112.67
2018-12-13T09:37:59.757Z,97108.90
2018-12-13T09:40:29.169Z,97101.92
2018-12-13T09:42:58.614Z,97109.80
2018-12-13T09:45:28.084Z,97098.23
2018-12-13T09:47:57.476Z,97098.98
2018-12-13T09:50:26.801Z,97087.95
2018-12-13T09:52:56.214Z,97094.84
2018-12-13T09:55:25.629Z,97097.66
2018-12-13T09:57:55.014Z,97093.64
2018-12-13T10:00:24.471Z,97098.20
2018-12-13T10:02:53.764Z,97083.23
2018-12-13T10:05:23.156Z,97082.65
2018-12-13T10:07:52.595Z,97086.85
2018-12-13T10:10:21.933Z,97078.30
2018-12-13T10:12:51.438Z,97074.34
2018-12-13T10:15:20.760Z,97083.19
2018-12-13T10:17:50.258Z,97083.42
2018-12-13T10:20:19.646Z,97088.12
2018-12-13T10:22:49.047Z,97079.49
2018-12-13T10:25:18.607Z,97071.63
2018-12-13T10:27:47.950Z,97071.63
2018-12-13T10:30:17.297Z,97070.16
2018-12-13T10:32:46.665Z,97063.92
2018-12-13T10:35:16.065Z,97060.27
2018-12-13T10:37:45.859Z,97054.98
2018-12-13T10:40:15.270Z,97052.05
2018-12-13T10:42:44.719Z,97048.59
2018-12-13T10:45:14.461Z,97049.97
2018-12-13T10:47:43.871Z,97047.03
2018-12-13T10:50:13.401Z,97046.16
2018-12-13T10:52:42.713Z,97038.20
2018-12-13T10:55:12.262Z,97045.51
2018-12-13T10:57:41.686Z,97039.95
2018-12-13T11:01:17.935Z,97035.41
2018-12-13T11:03:47.478Z,97031.02
2018-12-13T11:06:16.988Z,97027.94
2018-12-13T11:08:46.294Z,97035.02
2018-12-13T11:11:15.717Z,97032.20
2018-12-13T11:13:45.053Z,97028.48
2018-12-13T11:16:14.422Z,97031.16
2018-12-13T11:18:43.705Z,97027.06
2018-12-13T11:21:17.445Z,97026.98
2018-12-13T11:23:45.033Z,97026.92
2018-12-13T11:26:14.557Z,97027.85
2018-12-13T11:29:58.483Z,97020.44
2018-12-13T11:32:30.757Z,97017.45
2018-12-13T11:35:00.171Z,97012.77
2018-12-13T11:37:29.452Z,97024.87
2018-12-13T11:39:58.794Z,97020.23
2018-12-13T11:42:28.182Z,97010.76
2018-12-13T11:44:57.588Z,97010.36
2018-12-13T11:47:26.872Z,97025.70
2018-12-13T11:49:56.298Z,97013.30
2018-12-13T11:52:25.576Z,97009.83
2018-12-13T11:54:55.246Z,97009.94
2018-12-13T11:57:24.718Z,97014.67
2018-12-13T11:59:54.029Z,97011.16
2018-12-13T12:02:24.156Z,97013.10
2018-12-13T12:04:53.745Z,97009.55
2018-12-13T12:07:23.062Z,97004.31
2018-12-13T12:09:52.374Z,97002.99
2018-12-13T12:12:21.733Z,97003.05
2018-12-13T12:14:51.163Z,96997.58
2018-12-13T12:17:20.691Z,96992.63
2018-12-13T12:19:49.958Z,96997.33
2018-12-13T12:22:19.336Z,96998.36
2018-12-13T12:24:48.752Z,96997.37
2018-12-13T12:27:18.127Z,96991.08
2018-12-13T12:29:47.627Z,96989.41
2018-12-13T12:32:17.005Z,96991.84
2018-12-13T12:34:46.424Z,96989.44
2018-12-13T12:37:15.755Z,96990.77
2018-12-13T12:39:45.105Z,96991.74
2018-12-13T12:42:14.525Z,96989.27
2018-12-13T12:44:43.971Z,96993.47
2018-12-13T12:47:13.341Z,96984.93
2018-12-13T12:49:42.789Z,96992.88
2018-12-13T12:52:12.325Z,96992.63
2018-12-13T12:54:42.601Z,96995.22
2018-12-13T12:57:13.312Z,96985.02
2018-12-13T12:59:42.858Z,96991.13
2018-12-13T13:02:12.335Z,96984.86
2018-12-13T13:04:41.650Z,96984.67
2018-12-13T13:07:11.142Z,96979.06
2018-12-13T13:09:40.503Z,96977.60
2018-12-13T13:12:09.817Z,96982.87
2018-12-13T13:14:39.121Z,96982.39
2018-12-13T13:17:08.438Z,96981.66
2018-12-13T13:19:37.755Z,96979.98
2018-12-13T13:22:07.184Z,96984.19
2018-12-13T13:24:36.518Z,96973.88
2018-12-13T13:27:06.255Z,96976.02
2018-12-13T13:29:35.751Z,96979.45
2018-12-13T13:32:05.410Z,96974.03
2018-12-13T13:34:34.888Z,96976.37
2018-12-13T13:37:04.471Z,96977.83
2018-12-13T13:39:33.802Z,96969.88
2018-12-13T13:42:03.245Z,96969.67
2018-12-13T13:44:38.478Z,96975.81
2018-12-13T13:47:07.820Z,96973.48
2018-12-13T13:49:37.577Z,96977.45
2018-12-13T13:52:06.976Z,96973.55
2018-12-13T13:54:36.508Z,96974.34
2018-12-13T13:57:06.006Z,96973.86
2018-12-13T13:59:35.407Z,96976.50
2018-12-13T14:02:04.914Z,96978.05
2018-12-13T14:04:34.253Z,96979.23
2018-12-13T14:07:03.587Z,96972.70
2018-12-13T14:09:37.947Z,96978.06
2018-12-13T14:12:04.511Z,96976.79
2018-12-13T14:14:33.881Z,96984.06
2018-12-13T14:17:03.474Z,96979.52
2018-12-13T14:19:32.864Z,96985.05
2018-12-13T14:22:02.357Z,96979.04
2018-12-13T14:24:31.725Z,96977.58
2018-12-13T14:27:01.097Z,96981.78
2018-12-13T14:29:30.561Z,96975.66
2018-12-13T14:32:00.046Z,96965.09
2018-12-13T14:34:29.310Z,96973.86
2018-12-13T14:36:58.637Z,96975.80
2018-12-13T14:39:27.968Z,96989.77
2018-12-13T14:41:57.373Z,96985.81
2018-12-13T14:44:26.746Z,96988.16
2018-12-13T14:46:56.179Z,96992.41
2018-12-13T14:49:25.537Z,96994.16
2018-12-13T14:51:55.067Z,96989.96
2018-12-13T14:54:24.458Z,96988.27
2018-12-13T14:56:53.770Z,96994.70
2018-12-13T14:59:23.169Z,96993.96
2018-12-13T15:01:52.453Z,96984.55
2018-12-13T15:04:21.850Z,96986.01
2018-12-13T15:06:51.265Z,96994.49
2018-12-13T15:09:20.658Z,96992.35
2018-12-13T15:11:49.970Z,96995.23
2018-12-13T15:14:19.451Z,96991.95
2018-12-13T15:16:48.827Z,96998.82
2018-12-13T15:19:18.444Z,96993.89
2018-12-13T15:21:47.955Z,96990.81
2018-12-13T15:24:17.308Z,96997.41
2018-12-13T15:26:46.747Z,96999.48
2018-12-13T15:29:16.067Z,96997.73
2018-12-13T15:31:45.378Z,97003.23
2018-12-13T15:34:14.951Z,97004.17
2018-12-13T15:36:44.401Z,97008.03
2018-12-13T15:39:13.718Z,97004.36
2018-12-13T15:41:43.054Z,97002.81
2018-12-13T15:44:12.515Z,97007.44
2018-12-13T15:46:41.921Z,97011.91
2018-12-13T15:49:11.407Z,97012.63
2018-12-13T15:51:41.180Z,97019.63
2018-12-13T15:54:10.581Z,97007.68
2018-12-13T15:56:40.153Z,97016.22
2018-12-13T15:59:09.684Z,97014.30
2018-12-13T16:01:39.021Z,97014.74
2018-12-13T16:04:08.477Z,97016.02
2018-12-13T16:06:37.926Z,97025.31
2018-12-13T16:09:09.050Z,97015.51
2018-12-13T16:11:38.375Z,97018.67
2018-12-13T16:14:08.008Z,97014.84
2018-12-13T16:16:37.509Z,97018.44
2018-12-13T16:19:07.022Z,97010.67
2018-12-13T16:21:37.675Z,97025.56
2018-12-13T16:24:07.175Z,97024.17
2018-12-13T16:26:36.786Z,97022.91
2018-12-13T16:29:06.175Z,97014.97
2018-12-13T16:31:36.459Z,97022.42
2018-12-13T16:34:06.374Z,97025.69
2018-12-13T16:36:35.847Z,97017.84
2018-12-13T16:39:08.080Z,97024.75
2018-12-13T16:41:37.725Z,97014.81
2018-12-13T16:44:07.174Z,97012.22
2018-12-13T16:46:36.575Z,97010.86
2018-12-13T16:49:06.171Z,97020.07
2018-12-13T16:51:35.665Z,97016.94
2018-12-13T16:54:05.229Z,97008.61
2018-12-13T16:56:34.630Z,97006.02
2018-12-13T16:59:04.137Z,97012.02
2018-12-13T17:01:33.914Z,97013.25
2018-12-13T17:04:03.396Z,97001.58
2018-12-13T17:06:32.814Z,97007.45
2018-12-13T17:09:02.247Z,97003.27
2018-12-13T17:11:31.665Z,97001.84
2018-12-13T17:14:01.070Z,97001.45
2018-12-13T17:16:30.722Z,97006.44
2018-12-13T17:19:00.305Z,96998.92
2018-12-13T17:21:29.785Z,96998.59
2018-12-13T17:23:59.559Z,97008.13
2018-12-13T17:26:29.015Z,97001.79
2018-12-13T17:28:58.406Z,97005.59
2018-12-13T17:31:27.701Z,97010.52
2018-12-13T17:33:57.217Z,97008.03
2018-12-13T17:36:26.773Z,97003.36
2018-12-13T17:38:56.170Z,97004.77
2018-12-13T17:41:25.667Z,97007.52
2018-12-13T17:43:55.533Z,97007.64
2018-12-13T17:46:24.997Z,97008.13
2018-12-13T17:48:54.459Z,97012.38
2018-12-13T17:51:23.911Z,97011.39
2018-12-13T17:53:53.400Z,97018.78
2018-12-13T17:56:22.929Z,97021.31
2018-12-13T17:58:52.384Z,97014.16
2018-12-13T18:01:21.838Z,97017.42
2018-12-13T18:03:51.338Z,97022.25
2018-12-13T18:06:20.663Z,97019.83
2018-12-13T18:08:49.991Z,97021.92
2018-12-13T18:11:19.468Z,97023.30
2018-12-13T18:13:48.805Z,97012.83
2018-12-13T18:16:18.196Z,97027.31
2018-12-13T18:18:47.723Z,97030.91
2018-12-13T18:21:17.104Z,97035.70
2018-12-13T18:23:46.435Z,97034.11
2018-12-13T18:26:15.859Z,97033.98
2018-12-13T18:28:45.235Z,97041.49
2018-12-13T18:31:14.568Z,97038.56
2018-12-13T18:33:43.888Z,97041.26
2018-12-13T18:36:13.252Z,97044.45
2018-12-13T18:38:42.837Z,97042.70
2018-12-13T18:41:12.267Z,97039.68
2018-12-13T18:43:41.665Z,97038.51
2018-12-13T18:46:11.086Z,97048.38
2018-12-13T18:48:40.528Z,97047.59
2018-12-13T18:51:09.911Z,97055.05
2018-12-13T18:53:39.449Z,97050.03
2018-12-13T18:56:08.869Z,97049.97
2018-12-13T18:58:38.320Z,97048.16
2018-12-13T19:01:07.687Z,97053.02
2018-12-13T19:03:37.124Z,97055.55
2018-12-13T19:06:06.434Z,97052.23
2018-12-13T19:08:35.763Z,97059.83
2018-12-13T19:11:05.306Z,97056.36
2018-12-13T19:13:34.923Z,97057.42
2018-12-13T19:16:04.402Z,97052.23
2018-12-13T19:18:33.722Z,97052.23
2018-12-13T19:21:03.038Z,97055.55
2018-12-13T19:23:32.386Z,97060.34
2018-12-13T19:26:01.780Z,97056.05
2018-12-13T19:28:31.175Z,97058.91
2018-12-13T19:31:00.707Z,97059.68
2018-12-13T19:33:30.139Z,97063.16
2018-12-13T19:35:59.585Z,97057.20
2018-12-13T19:38:28.927Z,97063.09
2018-12-13T19:40:58.257Z,97056.03
2018-12-13T19:43:27.616Z,97058.84
2018-12-13T19:45:57.054Z,97065.18
2018-12-13T19:48:26.378Z,97060.59
2018-12-13T19:50:55.991Z,97059.33
2018-12-13T19:53:25.338Z,97062.86
2018-12-13T19:55:54.706Z,97065.33
2018-12-13T19:58:24.074Z,97066.42
2018-12-13T20:00:53.449Z,97060.54
2018-12-13T20:03:22.870Z,97065.61
2018-12-13T20:05:52.238Z,97067.81
2018-12-13T20:08:21.646Z,97066.12
2018-12-13T20:10:54.612Z,97073.89
2018-12-13T20:13:22.678Z,97062.21
2018-12-13T20:15:52.200Z,97072.02
2018-12-13T20:18:21.641Z,97067.89
2018-12-13T20:20:51.165Z,97066.72
2018-12-13T20:23:20.562Z,97067.94
2018-12-13T20:25:49.969Z,97068.88
2018-12-13T20:28:19.414Z,97068.61
2018-12-13T20:30:48.721Z,97067.56
2018-12-13T20:33:24.719Z,97063.58
2018-12-13T20:35:54.080Z,97059.50
2018-12-13T20:38:23.608Z,97059.89
2018-12-13T20:40:53.205Z,97065.52
2018-12-13T20:43:22.631Z,97068.09
2018-12-13T20:45:52.008Z,97063.66
2018-12-13T20:48:21.355Z,97068.88
2018-12-13T20:50:50.743Z,97073.34
2018-12-13T20:53:20.053Z,97070.80
2018-12-13T20:55:49.438Z,97080.55
2018-12-13T20:58:18.828Z,97075.48
2018-12-13T21:00:48.185Z,97081.39
2018-12-13T21:03:17.507Z,97077.75
2018-12-13T21:05:46.920Z,97080.13
2018-12-13T21:08:16.210Z,97081.70
2018-12-13T21:10:45.689Z,97074.16
2018-12-13T21:13:15.149Z,97072.33
2018-12-13T21:15:44.449Z,97072.72
2018-12-13T21:18:13.807Z,97064.25
2018-12-13T21:20:43.273Z,97064.30
2018-12-13T21:23:12.645Z,97065.33
2018-12-13T21:25:42.118Z,97065.35
2018-12-13T21:28:11.464Z,97075.98
2018-12-13T21:30:40.779Z,97070.91
2018-12-13T21:33:10.099Z,97076.59
2018-12-13T21:35:39.535Z,97072.13
2018-12-13T21:38:08.987Z,97062.43
2018-12-13T21:40:38.442Z,97073.17
2018-12-13T21:43:07.747Z,97077.40
2018-12-13T21:45:37.212Z,97074.22
2018-12-13T21:48:06.600Z,97072.63
2018-12-13T21:50:36.106Z,97074.22
2018-12-13T21:53:05.495Z,97070.19
2018-12-13T21:55:34.856Z,97073.29
2018-12-13T21:58:04.082Z,97073.66
2018-12-13T22:00:33.293Z,97077.36
2018-12-13T22:03:02.618Z,97075.64
2018-12-13T22:05:31.853Z,97071.58
2018-12-13T22:08:01.137Z,97072.17
2018-12-13T22:10:30.427Z,97074.22
2018-12-13T22:12:59.756Z,97070.19
2018-12-13T22:15:28.984Z,97083.73
2018-12-13T22:17:58.227Z,97085.00
2018-12-13T22:20:27.579Z,97077.62
2018-12-13T22:22:56.854Z,97085.45
2018-12-13T22:25:26.138Z,97088.38
2018-12-13T22:27:55.458Z,97086.11
2018-12-13T22:30:24.709Z,97081.66
2018-12-13T22:32:54.039Z,97091.46
2018-12-13T22:35:23.275Z,97088.80
2018-12-13T22:37:52.574Z,97090.68
2018-12-13T22:40:21.834Z,97082.37
2018-12-13T22:42:51.067Z,97084.19
2018-12-13T22:45:20.398Z,97088.32
2018-12-13T22:47:49.632Z,97093.39
2018-12-13T22:50:18.994Z,97102.32
2018-12-13T22:52:48.231Z,97093.23
2018-12-13T22:55:17.562Z,97094.98
2018-12-13T22:57:46.866Z,97097.69
2018-12-13T23:00:16.518Z,97098.63
2018-12-13T23:02:45.778Z,97095.77
2018-12-13T23:05:15.203Z,97093.39
2018-12-13T23:07:44.430Z,97090.64
2018-12-13T23:10:13.672Z,97099.56
2018-12-13T23:12:43.026Z,97087.83
2018-12-13T23:15:12.345Z,97101.32
2018-12-13T23:17:41.701Z,97096.09
2018-12-13T23:20:11.021Z,97096.64
2018-12-13T23:22:40.358Z,97097.69
2018-12-13T23:25:09.714Z,97101.10
2018-12-13T23:27:39.057Z,97090.91
2018-12-13T23:30:08.512Z,97093.02
2018-12-13T23:32:37.829Z,97091.91
2018-12-13T23:35:07.346Z,97092.39
2018-12-13T23:37:36.593Z,97091.63
2018-12-13T23:40:06.085Z,97094.55
2018-12-13T23:42:35.356Z,97097.53
2018-12-13T23:45:05.092Z,97094.94
2018-12-13T23:47:34.325Z,97097.53
2018-12-13T23:50:03.725Z,97088.76
2018-12-13T23:52:33.077Z,97095.09
2018-12-13T23:55:02.349Z,97095.70
2018-12-13T23:57:31.594Z,97098.02
